sensor_id;sensor_type;location;lat;lon;timestamp;P1;durP1;ratioP1;P2;durP2;ratioP2
59006;SDS011;44792;52.760;6.726;2023-11-18T00:00:31;18.75;;;11.15;;
59006;SDS011;44792;52.760;6.726;2023-11-18T00:02:58;22.02;;;10.32;;
59006;SDS011;44792;52.760;6.726;2023-11-18T00:05:23;18.23;;;10.38;;
59006;SDS011;44792;52.760;6.726;2023-11-18T00:07:49;15.23;;;9.70;;
59006;SDS011;44792;52.760;6.726;2023-11-18T00:10:15;14.68;;;9.18;;
59006;SDS011;44792;52.760;6.726;2023-11-18T00:12:42;17.67;;;9.63;;
59006;SDS011;44792;52.760;6.726;2023-11-18T00:15:08;17.55;;;10.13;;
59006;SDS011;44792;52.760;6.726;2023-11-18T00:17:39;13.43;;;9.85;;
59006;SDS011;44792;52.760;6.726;2023-11-18T00:20:05;15.05;;;10.48;;
59006;SDS011;44792;52.760;6.726;2023-11-18T00:22:37;15.52;;;9.50;;
59006;SDS011;44792;52.760;6.726;2023-11-18T00:25:04;15.52;;;9.25;;
59006;SDS011;44792;52.760;6.726;2023-11-18T00:27:32;13.85;;;9.70;;
59006;SDS011;44792;52.760;6.726;2023-11-18T00:30:01;16.92;;;10.02;;
59006;SDS011;44792;52.760;6.726;2023-11-18T00:32:30;25.85;;;10.98;;
59006;SDS011;44792;52.760;6.726;2023-11-18T00:34:56;15.50;;;10.25;;
59006;SDS011;44792;52.760;6.726;2023-11-18T00:37:22;16.85;;;10.82;;
59006;SDS011;44792;52.760;6.726;2023-11-18T00:39:48;14.68;;;10.25;;
59006;SDS011;44792;52.760;6.726;2023-11-18T00:42:14;17.25;;;11.38;;
59006;SDS011;44792;52.760;6.726;2023-11-18T00:44:40;18.92;;;12.30;;
59006;SDS011;44792;52.760;6.726;2023-11-18T00:47:07;17.90;;;12.10;;
59006;SDS011;44792;52.760;6.726;2023-11-18T00:49:33;23.55;;;12.18;;
59006;SDS011;44792;52.760;6.726;2023-11-18T00:51:59;21.65;;;13.73;;
59006;SDS011;44792;52.760;6.726;2023-11-18T00:54:24;20.98;;;12.98;;
59006;SDS011;44792;52.760;6.726;2023-11-18T00:56:50;25.88;;;12.45;;
59006;SDS011;44792;52.760;6.726;2023-11-18T00:59:16;28.83;;;13.27;;
59006;SDS011;44792;52.760;6.726;2023-11-18T01:01:41;24.38;;;12.50;;
59006;SDS011;44792;52.760;6.726;2023-11-18T01:04:07;21.33;;;11.32;;
59006;SDS011;44792;52.760;6.726;2023-11-18T01:06:34;17.48;;;11.68;;
59006;SDS011;44792;52.760;6.726;2023-11-18T01:08:59;17.13;;;11.38;;
59006;SDS011;44792;52.760;6.726;2023-11-18T01:11:26;17.02;;;10.30;;
59006;SDS011;44792;52.760;6.726;2023-11-18T01:13:51;22.27;;;10.52;;
59006;SDS011;44792;52.760;6.726;2023-11-18T01:16:19;15.48;;;10.65;;
59006;SDS011;44792;52.760;6.726;2023-11-18T01:18:45;21.73;;;10.98;;
59006;SDS011;44792;52.760;6.726;2023-11-18T01:21:11;17.60;;;11.32;;
59006;SDS011;44792;52.760;6.726;2023-11-18T01:23:37;16.38;;;10.85;;
59006;SDS011;44792;52.760;6.726;2023-11-18T01:26:07;17.40;;;11.18;;
59006;SDS011;44792;52.760;6.726;2023-11-18T01:28:36;19.73;;;11.10;;
59006;SDS011;44792;52.760;6.726;2023-11-18T01:31:04;20.65;;;10.80;;
59006;SDS011;44792;52.760;6.726;2023-11-18T01:33:32;17.40;;;11.45;;
59006;SDS011;44792;52.760;6.726;2023-11-18T01:35:58;18.10;;;11.18;;
59006;SDS011;44792;52.760;6.726;2023-11-18T01:38:24;17.33;;;11.43;;
59006;SDS011;44792;52.760;6.726;2023-11-18T01:40:51;20.05;;;10.73;;
59006;SDS011;44792;52.760;6.726;2023-11-18T01:43:18;20.92;;;12.15;;
59006;SDS011;44792;52.760;6.726;2023-11-18T01:45:44;19.65;;;11.38;;
59006;SDS011;44792;52.760;6.726;2023-11-18T01:48:11;21.15;;;11.45;;
59006;SDS011;44792;52.760;6.726;2023-11-18T01:50:38;20.35;;;12.10;;
59006;SDS011;44792;52.760;6.726;2023-11-18T01:53:06;20.42;;;12.60;;
59006;SDS011;44792;52.760;6.726;2023-11-18T01:55:32;24.60;;;13.00;;
59006;SDS011;44792;52.760;6.726;2023-11-18T01:57:59;21.98;;;12.70;;
59006;SDS011;44792;52.760;6.726;2023-11-18T02:00:33;23.52;;;13.43;;
59006;SDS011;44792;52.760;6.726;2023-11-18T02:03:06;23.00;;;12.77;;
59006;SDS011;44792;52.760;6.726;2023-11-18T02:05:32;21.35;;;12.70;;
59006;SDS011;44792;52.760;6.726;2023-11-18T02:07:58;26.67;;;13.20;;
59006;SDS011;44792;52.760;6.726;2023-11-18T02:10:26;22.85;;;13.35;;
59006;SDS011;44792;52.760;6.726;2023-11-18T02:12:57;27.60;;;13.73;;
59006;SDS011;44792;52.760;6.726;2023-11-18T02:15:33;24.20;;;13.63;;
59006;SDS011;44792;52.760;6.726;2023-11-18T02:18:01;25.85;;;13.00;;
59006;SDS011;44792;52.760;6.726;2023-11-18T02:20:28;24.67;;;13.48;;
59006;SDS011;44792;52.760;6.726;2023-11-18T02:22:55;27.92;;;14.70;;
59006;SDS011;44792;52.760;6.726;2023-11-18T02:25:21;24.73;;;13.73;;
59006;SDS011;44792;52.760;6.726;2023-11-18T02:27:52;27.55;;;14.68;;
59006;SDS011;44792;52.760;6.726;2023-11-18T02:30:18;31.40;;;16.45;;
59006;SDS011;44792;52.760;6.726;2023-11-18T02:32:56;34.97;;;15.05;;
59006;SDS011;44792;52.760;6.726;2023-11-18T02:37:55;34.75;;;15.65;;
59006;SDS011;44792;52.760;6.726;2023-11-18T02:40:28;38.47;;;16.63;;
59006;SDS011;44792;52.760;6.726;2023-11-18T02:42:58;39.72;;;18.23;;
59006;SDS011;44792;52.760;6.726;2023-11-18T02:45:25;42.58;;;17.88;;
59006;SDS011;44792;52.760;6.726;2023-11-18T02:47:52;41.78;;;18.25;;
59006;SDS011;44792;52.760;6.726;2023-11-18T02:50:23;36.00;;;16.83;;
59006;SDS011;44792;52.760;6.726;2023-11-18T02:52:49;39.33;;;19.38;;
59006;SDS011;44792;52.760;6.726;2023-11-18T02:55:15;37.95;;;18.75;;
59006;SDS011;44792;52.760;6.726;2023-11-18T02:57:41;44.75;;;18.05;;
59006;SDS011;44792;52.760;6.726;2023-11-18T03:00:07;41.22;;;19.13;;
59006;SDS011;44792;52.760;6.726;2023-11-18T03:02:37;39.22;;;18.95;;
59006;SDS011;44792;52.760;6.726;2023-11-18T03:05:05;40.60;;;19.77;;
59006;SDS011;44792;52.760;6.726;2023-11-18T03:07:45;38.28;;;20.13;;
59006;SDS011;44792;52.760;6.726;2023-11-18T03:10:18;55.38;;;19.63;;
59006;SDS011;44792;52.760;6.726;2023-11-18T03:12:50;38.35;;;18.55;;
59006;SDS011;44792;52.760;6.726;2023-11-18T03:15:20;37.25;;;17.70;;
59006;SDS011;44792;52.760;6.726;2023-11-18T03:17:47;39.75;;;19.27;;
59006;SDS011;44792;52.760;6.726;2023-11-18T03:20:18;45.65;;;18.95;;
59006;SDS011;44792;52.760;6.726;2023-11-18T03:22:48;40.20;;;18.40;;
59006;SDS011;44792;52.760;6.726;2023-11-18T03:25:15;39.47;;;18.33;;
59006;SDS011;44792;52.760;6.726;2023-11-18T03:27:42;51.72;;;18.92;;
59006;SDS011;44792;52.760;6.726;2023-11-18T03:30:09;48.47;;;19.00;;
59006;SDS011;44792;52.760;6.726;2023-11-18T03:32:35;36.97;;;18.23;;
59006;SDS011;44792;52.760;6.726;2023-11-18T03:35:02;50.47;;;18.80;;
59006;SDS011;44792;52.760;6.726;2023-11-18T03:40:01;53.25;;;17.50;;
59006;SDS011;44792;52.760;6.726;2023-11-18T03:42:27;48.15;;;20.13;;
59006;SDS011;44792;52.760;6.726;2023-11-18T03:44:54;40.70;;;19.42;;
59006;SDS011;44792;52.760;6.726;2023-11-18T03:47:19;44.88;;;20.40;;
59006;SDS011;44792;52.760;6.726;2023-11-18T03:49:49;38.90;;;19.27;;
59006;SDS011;44792;52.760;6.726;2023-11-18T03:52:15;40.83;;;18.73;;
59006;SDS011;44792;52.760;6.726;2023-11-18T03:54:41;43.28;;;21.02;;
59006;SDS011;44792;52.760;6.726;2023-11-18T03:57:07;42.90;;;20.02;;
59006;SDS011;44792;52.760;6.726;2023-11-18T03:59:33;46.78;;;20.00;;
59006;SDS011;44792;52.760;6.726;2023-11-18T04:01:58;46.97;;;21.23;;
59006;SDS011;44792;52.760;6.726;2023-11-18T04:04:24;54.65;;;21.35;;
59006;SDS011;44792;52.760;6.726;2023-11-18T04:06:50;41.55;;;19.67;;
59006;SDS011;44792;52.760;6.726;2023-11-18T04:09:15;45.60;;;20.45;;
59006;SDS011;44792;52.760;6.726;2023-11-18T04:11:41;48.60;;;20.63;;
59006;SDS011;44792;52.760;6.726;2023-11-18T04:14:10;48.97;;;20.80;;
59006;SDS011;44792;52.760;6.726;2023-11-18T04:16:36;43.47;;;19.38;;
59006;SDS011;44792;52.760;6.726;2023-11-18T04:19:03;42.63;;;19.08;;
59006;SDS011;44792;52.760;6.726;2023-11-18T04:21:29;40.28;;;18.45;;
59006;SDS011;44792;52.760;6.726;2023-11-18T04:23:55;49.10;;;19.60;;
59006;SDS011;44792;52.760;6.726;2023-11-18T04:26:20;42.95;;;19.85;;
59006;SDS011;44792;52.760;6.726;2023-11-18T04:28:46;42.60;;;18.67;;
59006;SDS011;44792;52.760;6.726;2023-11-18T04:31:12;43.47;;;18.95;;
59006;SDS011;44792;52.760;6.726;2023-11-18T04:33:38;41.17;;;18.77;;
59006;SDS011;44792;52.760;6.726;2023-11-18T04:36:05;42.22;;;19.05;;
59006;SDS011;44792;52.760;6.726;2023-11-18T04:38:35;41.58;;;18.48;;
59006;SDS011;44792;52.760;6.726;2023-11-18T04:41:00;36.97;;;18.67;;
59006;SDS011;44792;52.760;6.726;2023-11-18T04:43:28;40.47;;;18.65;;
59006;SDS011;44792;52.760;6.726;2023-11-18T04:45:55;44.15;;;20.48;;
59006;SDS011;44792;52.760;6.726;2023-11-18T04:48:21;40.65;;;18.35;;
59006;SDS011;44792;52.760;6.726;2023-11-18T04:50:47;35.28;;;17.02;;
59006;SDS011;44792;52.760;6.726;2023-11-18T04:53:13;37.45;;;17.95;;
59006;SDS011;44792;52.760;6.726;2023-11-18T04:55:38;33.78;;;16.25;;
59006;SDS011;44792;52.760;6.726;2023-11-18T04:58:05;33.75;;;16.88;;
59006;SDS011;44792;52.760;6.726;2023-11-18T05:00:33;36.28;;;17.30;;
59006;SDS011;44792;52.760;6.726;2023-11-18T05:03:03;31.80;;;15.80;;
59006;SDS011;44792;52.760;6.726;2023-11-18T05:05:30;30.98;;;15.75;;
59006;SDS011;44792;52.760;6.726;2023-11-18T05:07:56;33.38;;;15.60;;
59006;SDS011;44792;52.760;6.726;2023-11-18T05:10:22;34.65;;;16.85;;
59006;SDS011;44792;52.760;6.726;2023-11-18T05:12:49;37.38;;;16.50;;
59006;SDS011;44792;52.760;6.726;2023-11-18T05:15:21;35.42;;;16.25;;
59006;SDS011;44792;52.760;6.726;2023-11-18T05:17:50;33.45;;;16.75;;
59006;SDS011;44792;52.760;6.726;2023-11-18T05:20:16;37.70;;;17.20;;
59006;SDS011;44792;52.760;6.726;2023-11-18T05:22:42;45.55;;;18.95;;
59006;SDS011;44792;52.760;6.726;2023-11-18T05:25:08;33.78;;;16.75;;
59006;SDS011;44792;52.760;6.726;2023-11-18T05:27:35;34.13;;;16.92;;
59006;SDS011;44792;52.760;6.726;2023-11-18T05:30:01;38.72;;;17.63;;
59006;SDS011;44792;52.760;6.726;2023-11-18T05:32:27;37.78;;;17.63;;
59006;SDS011;44792;52.760;6.726;2023-11-18T05:34:54;34.85;;;17.02;;
59006;SDS011;44792;52.760;6.726;2023-11-18T05:37:22;40.40;;;17.88;;
59006;SDS011;44792;52.760;6.726;2023-11-18T05:39:49;42.00;;;18.33;;
59006;SDS011;44792;52.760;6.726;2023-11-18T05:42:23;40.15;;;18.05;;
59006;SDS011;44792;52.760;6.726;2023-11-18T05:44:51;39.45;;;17.60;;
59006;SDS011;44792;52.760;6.726;2023-11-18T05:47:24;34.33;;;16.42;;
59006;SDS011;44792;52.760;6.726;2023-11-18T05:49:53;45.22;;;18.58;;
59006;SDS011;44792;52.760;6.726;2023-11-18T05:52:20;36.67;;;17.30;;
59006;SDS011;44792;52.760;6.726;2023-11-18T05:54:46;38.83;;;18.10;;
59006;SDS011;44792;52.760;6.726;2023-11-18T05:57:13;40.17;;;18.83;;
59006;SDS011;44792;52.760;6.726;2023-11-18T05:59:40;41.67;;;17.95;;
59006;SDS011;44792;52.760;6.726;2023-11-18T06:02:05;38.58;;;19.15;;
59006;SDS011;44792;52.760;6.726;2023-11-18T06:04:33;42.63;;;18.35;;
59006;SDS011;44792;52.760;6.726;2023-11-18T06:06:59;41.35;;;19.10;;
59006;SDS011;44792;52.760;6.726;2023-11-18T06:09:24;47.50;;;20.23;;
59006;SDS011;44792;52.760;6.726;2023-11-18T06:11:53;48.58;;;20.25;;
59006;SDS011;44792;52.760;6.726;2023-11-18T06:14:20;39.70;;;19.20;;
59006;SDS011;44792;52.760;6.726;2023-11-18T06:16:47;41.17;;;19.30;;
59006;SDS011;44792;52.760;6.726;2023-11-18T06:19:15;42.80;;;18.52;;
59006;SDS011;44792;52.760;6.726;2023-11-18T06:21:40;47.63;;;18.65;;
59006;SDS011;44792;52.760;6.726;2023-11-18T06:24:06;40.17;;;17.38;;
59006;SDS011;44792;52.760;6.726;2023-11-18T06:26:32;47.40;;;18.60;;
59006;SDS011;44792;52.760;6.726;2023-11-18T06:29:01;48.78;;;20.40;;
59006;SDS011;44792;52.760;6.726;2023-11-18T06:31:27;55.33;;;19.23;;
59006;SDS011;44792;52.760;6.726;2023-11-18T06:33:54;42.35;;;20.02;;
59006;SDS011;44792;52.760;6.726;2023-11-18T06:36:20;52.40;;;20.23;;
59006;SDS011;44792;52.760;6.726;2023-11-18T06:38:47;49.70;;;19.88;;
59006;SDS011;44792;52.760;6.726;2023-11-18T06:41:15;54.95;;;20.52;;
59006;SDS011;44792;52.760;6.726;2023-11-18T06:43:43;50.03;;;19.80;;
59006;SDS011;44792;52.760;6.726;2023-11-18T06:46:31;50.15;;;19.73;;
59006;SDS011;44792;52.760;6.726;2023-11-18T06:48:58;55.47;;;21.00;;
59006;SDS011;44792;52.760;6.726;2023-11-18T06:51:28;57.78;;;20.35;;
59006;SDS011;44792;52.760;6.726;2023-11-18T06:53:55;52.15;;;19.35;;
59006;SDS011;44792;52.760;6.726;2023-11-18T06:56:25;51.33;;;20.85;;
59006;SDS011;44792;52.760;6.726;2023-11-18T06:58:52;45.40;;;20.80;;
59006;SDS011;44792;52.760;6.726;2023-11-18T07:01:19;41.17;;;20.55;;
59006;SDS011;44792;52.760;6.726;2023-11-18T07:03:45;45.88;;;19.90;;
59006;SDS011;44792;52.760;6.726;2023-11-18T07:06:16;51.33;;;21.08;;
59006;SDS011;44792;52.760;6.726;2023-11-18T07:08:47;55.20;;;18.92;;
59006;SDS011;44792;52.760;6.726;2023-11-18T07:11:14;55.25;;;21.15;;
59006;SDS011;44792;52.760;6.726;2023-11-18T07:13:44;49.75;;;19.98;;
59006;SDS011;44792;52.760;6.726;2023-11-18T07:16:10;53.63;;;19.52;;
59006;SDS011;44792;52.760;6.726;2023-11-18T07:18:36;52.55;;;20.30;;
59006;SDS011;44792;52.760;6.726;2023-11-18T07:21:03;46.55;;;19.10;;
59006;SDS011;44792;52.760;6.726;2023-11-18T07:23:30;57.17;;;19.77;;
59006;SDS011;44792;52.760;6.726;2023-11-18T07:25:59;53.92;;;21.52;;
59006;SDS011;44792;52.760;6.726;2023-11-18T07:28:25;54.00;;;22.27;;
59006;SDS011;44792;52.760;6.726;2023-11-18T07:30:52;56.90;;;21.05;;
59006;SDS011;44792;52.760;6.726;2023-11-18T07:33:18;58.95;;;22.90;;
59006;SDS011;44792;52.760;6.726;2023-11-18T07:35:45;60.00;;;22.95;;
59006;SDS011;44792;52.760;6.726;2023-11-18T07:38:13;53.40;;;21.98;;
59006;SDS011;44792;52.760;6.726;2023-11-18T07:40:39;63.33;;;22.90;;
59006;SDS011;44792;52.760;6.726;2023-11-18T07:43:16;64.97;;;25.23;;
59006;SDS011;44792;52.760;6.726;2023-11-18T07:45:42;66.10;;;24.47;;
59006;SDS011;44792;52.760;6.726;2023-11-18T07:48:11;70.07;;;25.63;;
59006;SDS011;44792;52.760;6.726;2023-11-18T07:50:38;69.32;;;25.05;;
59006;SDS011;44792;52.760;6.726;2023-11-18T07:53:09;72.45;;;24.77;;
59006;SDS011;44792;52.760;6.726;2023-11-18T07:55:36;69.30;;;25.77;;
59006;SDS011;44792;52.760;6.726;2023-11-18T07:58:08;75.72;;;27.30;;
59006;SDS011;44792;52.760;6.726;2023-11-18T08:00:41;77.75;;;27.48;;
59006;SDS011;44792;52.760;6.726;2023-11-18T08:03:08;71.60;;;26.73;;
59006;SDS011;44792;52.760;6.726;2023-11-18T08:05:38;68.82;;;26.85;;
59006;SDS011;44792;52.760;6.726;2023-11-18T08:08:08;76.57;;;27.15;;
59006;SDS011;44792;52.760;6.726;2023-11-18T08:10:35;73.70;;;25.52;;
59006;SDS011;44792;52.760;6.726;2023-11-18T08:13:03;72.80;;;27.33;;
59006;SDS011;44792;52.760;6.726;2023-11-18T08:15:39;76.50;;;26.88;;
59006;SDS011;44792;52.760;6.726;2023-11-18T08:18:11;71.95;;;26.50;;
59006;SDS011;44792;52.760;6.726;2023-11-18T08:20:37;69.97;;;26.33;;
59006;SDS011;44792;52.760;6.726;2023-11-18T08:23:03;77.88;;;27.70;;
59006;SDS011;44792;52.760;6.726;2023-11-18T08:25:32;66.68;;;26.92;;
59006;SDS011;44792;52.760;6.726;2023-11-18T08:28:00;66.60;;;24.48;;
59006;SDS011;44792;52.760;6.726;2023-11-18T08:30:26;66.93;;;25.50;;
59006;SDS011;44792;52.760;6.726;2023-11-18T08:32:52;66.68;;;27.00;;
59006;SDS011;44792;52.760;6.726;2023-11-18T08:35:18;70.78;;;27.13;;
59006;SDS011;44792;52.760;6.726;2023-11-18T08:37:45;69.88;;;25.25;;
59006;SDS011;44792;52.760;6.726;2023-11-18T08:40:12;65.03;;;26.08;;
59006;SDS011;44792;52.760;6.726;2023-11-18T08:42:45;65.68;;;26.15;;
59006;SDS011;44792;52.760;6.726;2023-11-18T08:45:19;55.53;;;22.83;;
59006;SDS011;44792;52.760;6.726;2023-11-18T08:47:47;66.45;;;26.08;;
59006;SDS011;44792;52.760;6.726;2023-11-18T08:50:16;64.20;;;25.15;;
59006;SDS011;44792;52.760;6.726;2023-11-18T08:52:42;63.70;;;24.98;;
59006;SDS011;44792;52.760;6.726;2023-11-18T08:55:12;58.72;;;22.98;;
59006;SDS011;44792;52.760;6.726;2023-11-18T08:57:48;56.42;;;23.55;;
59006;SDS011;44792;52.760;6.726;2023-11-18T09:00:23;48.88;;;21.25;;
59006;SDS011;44792;52.760;6.726;2023-11-18T09:03:08;56.38;;;23.77;;
59006;SDS011;44792;52.760;6.726;2023-11-18T09:05:33;52.10;;;22.45;;
59006;SDS011;44792;52.760;6.726;2023-11-18T09:08:01;59.80;;;23.05;;
59006;SDS011;44792;52.760;6.726;2023-11-18T09:10:31;58.08;;;23.00;;
59006;SDS011;44792;52.760;6.726;2023-11-18T09:12:58;53.20;;;22.90;;
59006;SDS011;44792;52.760;6.726;2023-11-18T09:15:24;53.92;;;22.60;;
59006;SDS011;44792;52.760;6.726;2023-11-18T09:17:50;55.83;;;22.38;;
59006;SDS011;44792;52.760;6.726;2023-11-18T09:20:17;45.75;;;20.80;;
59006;SDS011;44792;52.760;6.726;2023-11-18T09:22:47;52.47;;;21.83;;
59006;SDS011;44792;52.760;6.726;2023-11-18T09:25:14;43.63;;;20.33;;
59006;SDS011;44792;52.760;6.726;2023-11-18T09:27:41;45.05;;;20.95;;
59006;SDS011;44792;52.760;6.726;2023-11-18T09:30:07;43.97;;;20.90;;
59006;SDS011;44792;52.760;6.726;2023-11-18T09:32:40;41.45;;;19.27;;
59006;SDS011;44792;52.760;6.726;2023-11-18T09:35:12;44.95;;;18.73;;
59006;SDS011;44792;52.760;6.726;2023-11-18T09:37:39;41.75;;;19.60;;
59006;SDS011;44792;52.760;6.726;2023-11-18T09:40:16;39.70;;;19.25;;
59006;SDS011;44792;52.760;6.726;2023-11-18T09:42:43;43.35;;;19.10;;
59006;SDS011;44792;52.760;6.726;2023-11-18T09:45:09;40.85;;;19.63;;
59006;SDS011;44792;52.760;6.726;2023-11-18T09:47:45;41.70;;;19.45;;
59006;SDS011;44792;52.760;6.726;2023-11-18T09:50:18;42.65;;;20.35;;
59006;SDS011;44792;52.760;6.726;2023-11-18T09:52:50;43.17;;;18.10;;
59006;SDS011;44792;52.760;6.726;2023-11-18T09:55:33;39.50;;;18.63;;
59006;SDS011;44792;52.760;6.726;2023-11-18T09:58:09;34.53;;;17.05;;
59006;SDS011;44792;52.760;6.726;2023-11-18T10:00:38;39.72;;;18.10;;
59006;SDS011;44792;52.760;6.726;2023-11-18T10:03:07;40.45;;;18.55;;
59006;SDS011;44792;52.760;6.726;2023-11-18T10:05:35;39.35;;;18.35;;
59006;SDS011;44792;52.760;6.726;2023-11-18T10:08:04;41.90;;;18.73;;
59006;SDS011;44792;52.760;6.726;2023-11-18T10:10:34;40.58;;;18.55;;
59006;SDS011;44792;52.760;6.726;2023-11-18T10:13:03;37.38;;;17.15;;
59006;SDS011;44792;52.760;6.726;2023-11-18T10:15:33;40.65;;;18.60;;
59006;SDS011;44792;52.760;6.726;2023-11-18T10:18:00;50.28;;;19.77;;
59006;SDS011;44792;52.760;6.726;2023-11-18T10:23:13;41.35;;;19.25;;
59006;SDS011;44792;52.760;6.726;2023-11-18T10:25:48;37.95;;;18.25;;
59006;SDS011;44792;52.760;6.726;2023-11-18T10:28:21;40.05;;;18.85;;
59006;SDS011;44792;52.760;6.726;2023-11-18T10:30:49;40.13;;;19.63;;
59006;SDS011;44792;52.760;6.726;2023-11-18T10:33:16;35.10;;;17.42;;
59006;SDS011;44792;52.760;6.726;2023-11-18T10:35:51;36.95;;;19.13;;
59006;SDS011;44792;52.760;6.726;2023-11-18T10:38:20;37.13;;;17.90;;
59006;SDS011;44792;52.760;6.726;2023-11-18T10:40:52;38.17;;;19.13;;
59006;SDS011;44792;52.760;6.726;2023-11-18T10:43:21;42.78;;;19.10;;
59006;SDS011;44792;52.760;6.726;2023-11-18T10:45:51;38.65;;;19.17;;
59006;SDS011;44792;52.760;6.726;2023-11-18T10:48:17;36.17;;;17.80;;
59006;SDS011;44792;52.760;6.726;2023-11-18T10:50:48;40.80;;;17.70;;
59006;SDS011;44792;52.760;6.726;2023-11-18T10:53:16;37.95;;;18.77;;
59006;SDS011;44792;52.760;6.726;2023-11-18T10:55:43;38.75;;;19.02;;
59006;SDS011;44792;52.760;6.726;2023-11-18T10:58:10;37.22;;;18.27;;
59006;SDS011;44792;52.760;6.726;2023-11-18T11:00:45;37.03;;;18.52;;
59006;SDS011;44792;52.760;6.726;2023-11-18T11:03:15;36.97;;;17.27;;
59006;SDS011;44792;52.760;6.726;2023-11-18T11:05:41;41.13;;;19.15;;
59006;SDS011;44792;52.760;6.726;2023-11-18T11:08:08;39.40;;;17.52;;
59006;SDS011;44792;52.760;6.726;2023-11-18T11:10:44;38.10;;;18.00;;
59006;SDS011;44792;52.760;6.726;2023-11-18T11:13:10;40.55;;;18.90;;
59006;SDS011;44792;52.760;6.726;2023-11-18T11:15:40;37.05;;;17.85;;
59006;SDS011;44792;52.760;6.726;2023-11-18T11:18:10;37.88;;;18.00;;
59006;SDS011;44792;52.760;6.726;2023-11-18T11:20:52;34.30;;;17.05;;
59006;SDS011;44792;52.760;6.726;2023-11-18T11:23:35;36.58;;;16.92;;
59006;SDS011;44792;52.760;6.726;2023-11-18T11:31:38;36.22;;;17.88;;
59006;SDS011;44792;52.760;6.726;2023-11-18T11:34:17;35.72;;;17.13;;
59006;SDS011;44792;52.760;6.726;2023-11-18T11:36:49;31.02;;;17.15;;
59006;SDS011;44792;52.760;6.726;2023-11-18T11:39:17;31.83;;;16.88;;
59006;SDS011;44792;52.760;6.726;2023-11-18T11:41:51;35.65;;;18.65;;
59006;SDS011;44792;52.760;6.726;2023-11-18T11:44:19;30.65;;;15.57;;
59006;SDS011;44792;52.760;6.726;2023-11-18T11:46:46;33.50;;;17.00;;
59006;SDS011;44792;52.760;6.726;2023-11-18T11:49:18;30.15;;;15.65;;
59006;SDS011;44792;52.760;6.726;2023-11-18T11:54:52;32.15;;;15.80;;
59006;SDS011;44792;52.760;6.726;2023-11-18T11:57:52;29.73;;;16.17;;
59006;SDS011;44792;52.760;6.726;2023-11-18T12:00:24;27.95;;;15.95;;
59006;SDS011;44792;52.760;6.726;2023-11-18T12:02:52;35.53;;;17.00;;
59006;SDS011;44792;52.760;6.726;2023-11-18T12:05:20;40.00;;;17.33;;
59006;SDS011;44792;52.760;6.726;2023-11-18T12:07:51;31.48;;;16.17;;
59006;SDS011;44792;52.760;6.726;2023-11-18T12:10:20;33.08;;;16.50;;
59006;SDS011;44792;52.760;6.726;2023-11-18T12:12:47;35.42;;;16.30;;
59006;SDS011;44792;52.760;6.726;2023-11-18T12:15:13;31.60;;;16.25;;
59006;SDS011;44792;52.760;6.726;2023-11-18T12:23:07;32.80;;;15.07;;
59006;SDS011;44792;52.760;6.726;2023-11-18T12:25:39;27.30;;;13.82;;
59006;SDS011;44792;52.760;6.726;2023-11-18T12:28:15;30.20;;;15.13;;
59006;SDS011;44792;52.760;6.726;2023-11-18T12:30:45;30.52;;;14.85;;
59006;SDS011;44792;52.760;6.726;2023-11-18T12:33:17;24.65;;;15.10;;
59006;SDS011;44792;52.760;6.726;2023-11-18T12:41:35;28.00;;;14.27;;
59006;SDS011;44792;52.760;6.726;2023-11-18T12:49:18;31.63;;;13.88;;
59006;SDS011;44792;52.760;6.726;2023-11-18T12:51:54;27.90;;;13.80;;
59006;SDS011;44792;52.760;6.726;2023-11-18T12:54:21;33.10;;;14.85;;
59006;SDS011;44792;52.760;6.726;2023-11-18T12:56:50;30.50;;;14.25;;
59006;SDS011;44792;52.760;6.726;2023-11-18T12:59:19;27.13;;;14.95;;
59006;SDS011;44792;52.760;6.726;2023-11-18T13:01:49;27.02;;;14.63;;
59006;SDS011;44792;52.760;6.726;2023-11-18T13:06:59;25.98;;;13.75;;
59006;SDS011;44792;52.760;6.726;2023-11-18T13:09:25;24.10;;;13.70;;
59006;SDS011;44792;52.760;6.726;2023-11-18T13:11:58;29.08;;;14.38;;
59006;SDS011;44792;52.760;6.726;2023-11-18T13:14:29;23.38;;;13.50;;
59006;SDS011;44792;52.760;6.726;2023-11-18T13:17:01;29.40;;;13.95;;
59006;SDS011;44792;52.760;6.726;2023-11-18T13:19:33;23.75;;;12.68;;
59006;SDS011;44792;52.760;6.726;2023-11-18T13:22:03;30.30;;;13.02;;
59006;SDS011;44792;52.760;6.726;2023-11-18T13:24:36;27.27;;;13.63;;
59006;SDS011;44792;52.760;6.726;2023-11-18T13:27:04;31.30;;;13.55;;
59006;SDS011;44792;52.760;6.726;2023-11-18T13:29:32;28.50;;;13.68;;
59006;SDS011;44792;52.760;6.726;2023-11-18T13:32:01;27.63;;;13.13;;
59006;SDS011;44792;52.760;6.726;2023-11-18T13:34:39;26.50;;;12.73;;
59006;SDS011;44792;52.760;6.726;2023-11-18T13:37:07;22.67;;;13.18;;
59006;SDS011;44792;52.760;6.726;2023-11-18T13:39:33;26.85;;;13.35;;
59006;SDS011;44792;52.760;6.726;2023-11-18T13:42:17;29.33;;;13.57;;
59006;SDS011;44792;52.760;6.726;2023-11-18T13:44:45;25.20;;;13.90;;
59006;SDS011;44792;52.760;6.726;2023-11-18T13:47:11;24.70;;;14.18;;
59006;SDS011;44792;52.760;6.726;2023-11-18T13:49:37;26.35;;;12.27;;
59006;SDS011;44792;52.760;6.726;2023-11-18T13:52:07;25.35;;;12.52;;
59006;SDS011;44792;52.760;6.726;2023-11-18T13:54:36;24.17;;;13.10;;
59006;SDS011;44792;52.760;6.726;2023-11-18T13:57:02;26.13;;;13.15;;
59006;SDS011;44792;52.760;6.726;2023-11-18T13:59:29;25.40;;;12.52;;
59006;SDS011;44792;52.760;6.726;2023-11-18T14:01:55;25.13;;;12.98;;
59006;SDS011;44792;52.760;6.726;2023-11-18T14:04:24;29.30;;;13.45;;
59006;SDS011;44792;52.760;6.726;2023-11-18T14:06:53;28.60;;;12.15;;
59006;SDS011;44792;52.760;6.726;2023-11-18T14:09:22;22.48;;;12.43;;
59006;SDS011;44792;52.760;6.726;2023-11-18T14:11:53;26.50;;;12.70;;
59006;SDS011;44792;52.760;6.726;2023-11-18T14:14:25;26.87;;;12.43;;
59006;SDS011;44792;52.760;6.726;2023-11-18T14:16:52;26.42;;;12.88;;
59006;SDS011;44792;52.760;6.726;2023-11-18T14:19:19;22.52;;;12.52;;
59006;SDS011;44792;52.760;6.726;2023-11-18T14:21:45;21.13;;;12.52;;
59006;SDS011;44792;52.760;6.726;2023-11-18T14:24:11;22.08;;;11.82;;
59006;SDS011;44792;52.760;6.726;2023-11-18T14:26:40;24.73;;;12.38;;
59006;SDS011;44792;52.760;6.726;2023-11-18T14:29:06;26.88;;;12.00;;
59006;SDS011;44792;52.760;6.726;2023-11-18T14:31:33;23.17;;;11.95;;
59006;SDS011;44792;52.760;6.726;2023-11-18T14:34:02;25.98;;;11.20;;
59006;SDS011;44792;52.760;6.726;2023-11-18T14:36:29;22.85;;;10.82;;
59006;SDS011;44792;52.760;6.726;2023-11-18T14:38:55;21.67;;;11.73;;
59006;SDS011;44792;52.760;6.726;2023-11-18T14:41:23;22.52;;;11.40;;
59006;SDS011;44792;52.760;6.726;2023-11-18T14:43:54;24.10;;;12.05;;
59006;SDS011;44792;52.760;6.726;2023-11-18T14:46:20;19.75;;;12.05;;
59006;SDS011;44792;52.760;6.726;2023-11-18T14:48:46;24.02;;;11.35;;
59006;SDS011;44792;52.760;6.726;2023-11-18T14:51:12;23.23;;;12.80;;
59006;SDS011;44792;52.760;6.726;2023-11-18T14:53:38;22.48;;;11.60;;
59006;SDS011;44792;52.760;6.726;2023-11-18T14:56:04;21.75;;;11.93;;
59006;SDS011;44792;52.760;6.726;2023-11-18T14:58:30;25.30;;;12.73;;
59006;SDS011;44792;52.760;6.726;2023-11-18T15:01:00;22.30;;;12.48;;
59006;SDS011;44792;52.760;6.726;2023-11-18T15:03:27;20.88;;;12.38;;